createdAt,value
2022-10-11T00:00:34.548Z,89.49
2022-10-11T00:03:03.141Z,89.35
2022-10-11T00:05:31.058Z,89.64
2022-10-11T00:08:00.224Z,89.31
2022-10-11T00:10:28.138Z,89.53
2022-10-11T00:12:55.987Z,89.17
2022-10-11T00:15:25.848Z,89.90
2022-10-11T00:17:53.708Z,89.55
2022-10-11T00:20:22.373Z,90.15
2022-10-11T00:22:50.402Z,90.32
2022-10-11T00:25:19.198Z,90.48
2022-10-11T00:27:47.140Z,90.33
2022-10-11T00:30:15.203Z,90.42
2022-10-11T00:32:44.680Z,89.87
2022-10-11T00:35:12.556Z,89.60
2022-10-11T00:37:40.904Z,89.86
2022-10-11T00:40:14.204Z,89.61
2022-10-11T00:42:42.167Z,90.34
2022-10-11T00:45:56.252Z,89.56
2022-10-11T00:48:30.847Z,89.38
2022-10-11T00:51:01.899Z,89.93
2022-10-11T00:53:31.807Z,89.58
2022-10-11T00:56:07.012Z,89.87
2022-10-11T00:58:37.458Z,90.42
2022-10-11T01:01:05.559Z,90.92
2022-10-11T01:03:38.190Z,90.07
2022-10-11T01:06:06.956Z,90.39
2022-10-11T01:08:35.496Z,90.19
2022-10-11T01:11:03.793Z,89.95
2022-10-11T01:13:42.811Z,90.12
2022-10-11T01:16:17.002Z,89.46
2022-10-11T01:18:56.336Z,89.68
2022-10-11T01:21:36.170Z,88.95
2022-10-11T01:24:31.252Z,89.32
2022-10-11T01:27:30.716Z,89.00
2022-10-11T01:30:08.400Z,89.27
2022-10-11T01:32:47.730Z,89.14
2022-10-11T01:35:22.670Z,89.77
2022-10-11T01:37:56.963Z,90.18
2022-10-11T01:40:28.646Z,90.67
2022-10-11T01:42:58.718Z,90.67
2022-10-11T01:45:26.747Z,91.12
2022-10-11T01:48:05.848Z,91.22
2022-10-11T01:50:46.213Z,91.21
2022-10-11T01:53:41.210Z,91.48
2022-10-11T01:56:21.928Z,91.38
2022-10-11T01:59:03.556Z,91.34
2022-10-11T02:01:44.235Z,91.75
2022-10-11T02:04:21.474Z,91.46
2022-10-11T02:07:00.307Z,91.02
2022-10-11T02:09:33.870Z,91.06
2022-10-11T02:12:07.382Z,91.10
2022-10-11T02:14:41.459Z,91.35
2022-10-11T02:17:13.853Z,90.66
2022-10-11T02:19:46.604Z,91.21
2022-10-11T02:22:19.537Z,90.54
2022-10-11T02:24:51.448Z,90.07
2022-10-11T02:27:23.988Z,90.15
2022-10-11T02:29:55.028Z,90.12
2022-10-11T02:32:26.743Z,90.26
2022-10-11T02:34:58.656Z,89.99
2022-10-11T02:37:32.629Z,90.15
2022-10-11T02:40:07.807Z,90.15
2022-10-11T02:42:39.946Z,90.08
2022-10-11T02:45:14.265Z,89.80
2022-10-11T02:47:43.577Z,90.48
2022-10-11T02:50:14.303Z,90.04
2022-10-11T02:52:42.253Z,89.99
2022-10-11T02:55:11.489Z,90.14
2022-10-11T02:57:40.428Z,90.63
2022-10-11T03:00:09.230Z,90.49
2022-10-11T03:02:37.103Z,90.48
2022-10-11T03:05:05.593Z,90.67
2022-10-11T03:07:34.847Z,90.81
2022-10-11T03:10:02.730Z,90.74
2022-10-11T03:12:30.876Z,90.12
2022-10-11T03:14:58.981Z,89.84
2022-10-11T03:17:42.829Z,89.70
2022-10-11T03:20:11.272Z,90.32
2022-10-11T03:22:42.229Z,90.88
2022-10-11T03:25:10.981Z,91.03
2022-10-11T03:27:38.803Z,90.62
2022-10-11T03:30:10.050Z,90.33
2022-10-11T03:32:38.213Z,90.51
2022-10-11T03:35:07.368Z,90.80
2022-10-11T03:37:35.273Z,90.77
2022-10-11T03:40:05.129Z,90.47
2022-10-11T03:42:32.926Z,91.33
2022-10-11T03:45:04.750Z,90.76
2022-10-11T03:47:32.711Z,91.20
2022-10-11T03:50:00.521Z,91.64
2022-10-11T03:52:28.350Z,91.47
2022-10-11T03:54:56.365Z,92.06
2022-10-11T03:57:25.580Z,92.36
2022-10-11T03:59:53.453Z,92.15
2022-10-11T04:02:21.444Z,92.32
2022-10-11T04:04:49.315Z,92.50
2022-10-11T04:07:17.231Z,92.17
2022-10-11T04:09:45.212Z,92.08
2022-10-11T04:12:13.394Z,91.76
2022-10-11T04:14:42.663Z,91.97
2022-10-11T04:17:11.045Z,91.65
2022-10-11T04:19:38.859Z,91.73
2022-10-11T04:22:07.057Z,91.93
2022-10-11T04:24:35.335Z,91.98
2022-10-11T04:27:03.194Z,92.03
2022-10-11T04:29:32.749Z,91.93
2022-10-11T04:32:02.241Z,92.34
2022-10-11T04:34:30.155Z,91.69
2022-10-11T04:36:58.155Z,92.10
2022-10-11T04:39:25.953Z,91.59
2022-10-11T04:41:53.766Z,91.56
2022-10-11T04:44:21.916Z,92.19
2022-10-11T04:46:49.801Z,92.04
2022-10-11T04:49:18.976Z,91.83
2022-10-11T04:51:46.798Z,92.65
2022-10-11T04:54:14.746Z,93.07
2022-10-11T04:56:42.763Z,92.90
2022-10-11T04:59:10.816Z,93.39
2022-10-11T05:01:38.710Z,93.38
2022-10-11T05:04:06.824Z,93.97
2022-10-11T05:06:36.013Z,94.41
2022-10-11T05:09:05.913Z,94.01
2022-10-11T05:11:33.727Z,93.93
2022-10-11T05:14:01.579Z,94.12
2022-10-11T05:16:29.524Z,94.03
2022-10-11T05:18:57.321Z,94.82
2022-10-11T05:21:26.464Z,94.28
2022-10-11T05:23:57.212Z,94.24
2022-10-11T05:26:27.821Z,94.10
2022-10-11T05:28:56.617Z,93.71
2022-10-11T05:31:24.613Z,93.96
2022-10-11T05:33:52.777Z,93.99
2022-10-11T05:36:20.694Z,93.65
2022-10-11T05:38:48.879Z,92.70
2022-10-11T05:41:18.753Z,93.17
2022-10-11T05:43:46.709Z,93.41
2022-10-11T05:46:14.735Z,93.00
2022-10-11T05:48:43.016Z,93.36
2022-10-11T05:51:12.420Z,93.34
2022-10-11T05:53:40.466Z,92.91
2022-10-11T05:56:21.230Z,92.95
2022-10-11T05:58:49.108Z,93.11
2022-10-11T06:01:19.309Z,93.15
2022-10-11T06:03:47.169Z,93.16
2022-10-11T06:06:15.223Z,93.47
2022-10-11T06:08:43.341Z,93.79
2022-10-11T06:11:13.358Z,93.96
2022-10-11T06:13:43.069Z,93.87
2022-10-11T06:16:11.733Z,93.42
2022-10-11T06:18:39.639Z,93.30
2022-10-11T06:21:07.855Z,93.21
2022-10-11T06:23:36.081Z,92.82
2022-10-11T06:26:07.551Z,92.46
2022-10-11T06:28:37.340Z,93.01
2022-10-11T06:31:07.926Z,92.67
2022-10-11T06:33:36.348Z,93.13
2022-10-11T06:36:07.770Z,92.62
2022-10-11T06:38:36.699Z,91.43
2022-10-11T06:41:14.047Z,92.11
2022-10-11T06:43:41.901Z,92.81
2022-10-11T06:46:11.745Z,92.92
2022-10-11T06:48:41.415Z,92.74
2022-10-11T06:51:09.600Z,92.48
2022-10-11T06:53:39.031Z,92.16
2022-10-11T06:56:10.135Z,91.90
2022-10-11T06:58:38.293Z,92.85
2022-10-11T07:01:08.668Z,92.81
2022-10-11T07:03:38.269Z,92.79
2022-10-11T07:06:09.207Z,92.45
2022-10-11T07:08:38.053Z,92.38
2022-10-11T07:11:07.960Z,92.57
2022-10-11T07:13:36.377Z,92.70
2022-10-11T07:16:05.215Z,92.81
2022-10-11T07:18:33.705Z,92.67
2022-10-11T07:21:06.403Z,92.31
2022-10-11T07:23:34.648Z,92.02
2022-10-11T07:26:02.778Z,91.69
2022-10-11T07:28:31.627Z,91.71
2022-10-11T07:31:00.286Z,91.70
2022-10-11T07:33:28.296Z,91.39
2022-10-11T07:35:58.995Z,90.95
2022-10-11T07:38:28.741Z,90.66
2022-10-11T07:40:56.677Z,90.90
2022-10-11T07:43:24.991Z,90.66
2022-10-11T07:45:55.650Z,90.12
2022-10-11T07:48:23.798Z,89.18
2022-10-11T07:50:51.677Z,89.17
2022-10-11T07:53:19.842Z,89.48
2022-10-11T07:55:49.322Z,89.96
2022-10-11T07:58:17.188Z,89.69
2022-10-11T08:00:45.359Z,89.67
2022-10-11T08:03:14.060Z,89.48
2022-10-11T08:05:42.078Z,89.85
2022-10-11T08:08:09.885Z,89.66
2022-10-11T08:10:39.465Z,89.87
2022-10-11T08:13:08.760Z,90.01
2022-10-11T08:15:36.979Z,89.71
2022-10-11T08:18:08.395Z,89.89
2022-10-11T08:20:36.316Z,89.41
2022-10-11T08:23:04.184Z,88.57
2022-10-11T08:25:32.091Z,88.85
2022-10-11T08:28:00.135Z,89.00
2022-10-11T08:30:29.718Z,87.81
2022-10-11T08:32:57.606Z,88.28
2022-10-11T08:35:25.481Z,88.84
2022-10-11T08:37:53.810Z,89.40
2022-10-11T08:40:23.205Z,89.68
2022-10-11T08:42:59.482Z,88.79
2022-10-11T08:45:34.295Z,89.15
2022-10-11T08:48:14.781Z,88.27
2022-10-11T08:50:45.995Z,88.97
2022-10-11T08:53:20.146Z,89.08
2022-10-11T08:55:52.444Z,88.92
2022-10-11T08:58:24.310Z,89.17
2022-10-11T09:00:56.617Z,88.73
2022-10-11T09:03:30.828Z,89.65
2022-10-11T09:06:09.965Z,90.17
2022-10-11T09:08:57.399Z,90.50
2022-10-11T09:11:40.371Z,89.84
2022-10-11T09:14:23.398Z,89.65
2022-10-11T09:17:02.625Z,88.90
2022-10-11T09:20:05.733Z,88.81
2022-10-11T09:22:43.666Z,88.43
2022-10-11T09:25:24.232Z,88.49
2022-10-11T09:28:06.446Z,89.13
2022-10-11T09:30:35.197Z,88.53
2022-10-11T09:33:14.883Z,88.34
2022-10-11T09:35:47.268Z,88.00
2022-10-11T09:38:25.733Z,87.25
2022-10-11T09:41:04.337Z,87.28
2022-10-11T09:43:32.732Z,86.86
2022-10-11T09:46:01.054Z,86.44
2022-10-11T09:48:39.800Z,86.84
2022-10-11T09:51:13.986Z,86.79
2022-10-11T09:53:57.933Z,86.74
2022-10-11T09:56:27.532Z,85.03
2022-10-11T09:59:26.746Z,85.42
2022-10-11T10:02:21.257Z,85.30
2022-10-11T10:05:15.596Z,84.90
2022-10-11T10:08:04.485Z,82.52
2022-10-11T10:10:38.615Z,83.25
2022-10-11T10:13:18.006Z,82.47
2022-10-11T10:15:48.232Z,82.58
2022-10-11T10:18:23.746Z,81.90
2022-10-11T10:20:59.519Z,82.15
2022-10-11T10:23:30.440Z,81.44
2022-10-11T10:26:12.875Z,79.84
2022-10-11T10:28:54.803Z,80.05
2022-10-11T10:31:24.475Z,79.42
2022-10-11T10:33:55.717Z,79.63
2022-10-11T10:36:29.724Z,78.79
2022-10-11T10:39:03.575Z,78.86
2022-10-11T10:41:31.439Z,79.26
2022-10-11T10:44:00.713Z,78.52
2022-10-11T10:46:54.319Z,78.57
2022-10-11T10:52:45.627Z,79.50
2022-10-11T10:55:23.493Z,79.18
2022-10-11T10:58:03.635Z,79.68
2022-10-11T11:00:40.075Z,79.38
2022-10-11T11:03:14.896Z,79.37
2022-10-11T11:05:49.433Z,79.92
2022-10-11T11:08:32.265Z,79.34
2022-10-11T11:11:12.304Z,80.00
2022-10-11T11:13:50.571Z,80.07
2022-10-11T11:16:25.253Z,79.64
2022-10-11T11:18:59.267Z,79.10
2022-10-11T11:21:41.723Z,79.20
2022-10-11T11:24:16.903Z,79.19
2022-10-11T11:26:52.334Z,78.78
2022-10-11T11:29:36.162Z,78.98
2022-10-11T11:32:15.104Z,78.59
2022-10-11T11:34:48.092Z,78.97
2022-10-11T11:37:26.184Z,79.73
2022-10-11T11:40:00.689Z,79.51
2022-10-11T11:42:36.410Z,79.09
2022-10-11T11:45:14.453Z,79.73
2022-10-11T11:47:48.193Z,79.45
2022-10-11T11:50:22.565Z,78.09
2022-10-11T11:52:55.661Z,78.24
2022-10-11T11:55:32.651Z,78.97
2022-10-11T11:58:13.886Z,78.89
2022-10-11T12:00:53.888Z,77.86
2022-10-11T12:03:27.891Z,77.51
2022-10-11T12:06:21.236Z,77.38
2022-10-11T12:08:56.813Z,76.51
2022-10-11T12:11:34.528Z,77.12
2022-10-11T12:14:17.617Z,76.76
2022-10-11T12:17:17.433Z,77.42
2022-10-11T12:20:03.005Z,77.11
2022-10-11T12:22:56.184Z,76.04
2022-10-11T12:25:40.885Z,76.36
2022-10-11T12:29:00.920Z,75.66
2022-10-11T12:31:30.805Z,76.91
2022-10-11T12:34:20.684Z,76.90
2022-10-11T12:36:50.263Z,77.00
2022-10-11T12:39:52.819Z,76.13
2022-10-11T12:42:30.468Z,76.68
2022-10-11T12:45:32.415Z,76.55
2022-10-11T12:48:21.887Z,75.65
2022-10-11T12:51:03.232Z,74.93
2022-10-11T12:54:21.465Z,74.49
2022-10-11T12:56:50.314Z,74.51
2022-10-11T12:59:21.109Z,74.15
2022-10-11T13:01:53.181Z,73.48
2022-10-11T13:04:23.494Z,73.68
2022-10-11T13:06:57.356Z,72.86
2022-10-11T13:09:31.160Z,73.18
2022-10-11T13:12:04.194Z,72.94
2022-10-11T13:14:37.059Z,72.10
2022-10-11T13:17:18.332Z,72.62
2022-10-11T13:19:46.215Z,71.79
2022-10-11T13:22:19.967Z,71.61
2022-10-11T13:24:48.007Z,71.00
2022-10-11T13:27:21.681Z,70.81
2022-10-11T13:29:51.630Z,71.20
2022-10-11T13:32:23.784Z,70.04
2022-10-11T13:37:31.278Z,71.51
2022-10-11T13:39:59.780Z,69.78
2022-10-11T13:42:30.663Z,69.28
2022-10-11T13:44:59.445Z,69.96
2022-10-11T13:47:31.724Z,70.67
2022-10-11T13:50:12.282Z,70.42
2022-10-11T13:52:54.699Z,70.82
2022-10-11T13:55:29.621Z,71.78
2022-10-11T13:57:59.703Z,71.15
2022-10-11T14:00:33.387Z,71.00
2022-10-11T14:03:06.349Z,71.19
2022-10-11T14:05:38.172Z,71.18
2022-10-11T14:08:08.845Z,71.46
2022-10-11T14:10:37.127Z,73.35
2022-10-11T14:13:24.228Z,72.57
2022-10-11T14:16:04.058Z,73.21
2022-10-11T14:18:46.148Z,73.57
2022-10-11T14:21:29.300Z,73.86
2022-10-11T14:23:59.527Z,74.03
2022-10-11T14:26:32.122Z,74.65
2022-10-11T14:29:03.343Z,74.13
2022-10-11T14:31:31.597Z,74.61
2022-10-11T14:34:00.988Z,75.17
2022-10-11T14:36:28.916Z,74.31
2022-10-11T14:38:56.828Z,74.88
2022-10-11T14:41:24.760Z,74.67
2022-10-11T14:43:56.451Z,74.82
2022-10-11T14:46:27.389Z,75.16
2022-10-11T14:48:56.746Z,74.48
2022-10-11T14:51:31.126Z,74.50
2022-10-11T14:53:59.401Z,74.62
2022-10-11T14:56:27.348Z,75.16
2022-10-11T14:58:55.218Z,75.53
2022-10-11T15:01:23.151Z,76.08
2022-10-11T15:03:51.349Z,75.92
2022-10-11T15:06:21.103Z,76.37
2022-10-11T15:08:50.551Z,76.22
2022-10-11T15:11:20.613Z,76.14
2022-10-11T15:13:49.701Z,76.34
2022-10-11T15:16:21.014Z,76.67
2022-10-11T15:18:51.042Z,76.91
2022-10-11T15:21:20.878Z,77.95
2022-10-11T15:23:51.699Z,77.58
2022-10-11T15:26:21.390Z,78.39
2022-10-11T15:28:50.292Z,78.78
2022-10-11T15:31:18.964Z,78.54
2022-10-11T15:33:46.874Z,78.37
2022-10-11T15:36:17.259Z,78.82
2022-10-11T15:38:46.212Z,79.04
2022-10-11T15:41:19.016Z,78.08
2022-10-11T15:43:48.630Z,78.87
2022-10-11T15:46:18.347Z,79.07
2022-10-11T15:48:47.070Z,79.24
2022-10-11T15:51:15.286Z,79.19
2022-10-11T15:53:43.217Z,79.59
2022-10-11T15:56:16.894Z,80.06
2022-10-11T15:58:44.929Z,80.48
2022-10-11T16:01:15.639Z,80.35
2022-10-11T16:03:44.270Z,80.69
2022-10-11T16:06:13.115Z,79.74
2022-10-11T16:08:41.663Z,80.33
2022-10-11T16:11:10.916Z,80.40
2022-10-11T16:13:40.491Z,80.71
2022-10-11T16:16:10.448Z,81.27
2022-10-11T16:18:39.117Z,81.58
2022-10-11T16:21:09.006Z,82.09
2022-10-11T16:23:37.808Z,82.28
2022-10-11T16:26:07.981Z,82.50
2022-10-11T16:28:36.577Z,82.74
2022-10-11T16:31:09.576Z,82.58
2022-10-11T16:33:45.508Z,82.49
2022-10-11T16:36:35.986Z,82.73
2022-10-11T16:39:07.141Z,83.26
2022-10-11T16:41:34.986Z,83.77
2022-10-11T16:44:02.809Z,83.57
2022-10-11T16:46:32.293Z,84.04
2022-10-11T16:49:00.422Z,84.06
2022-10-11T16:51:28.488Z,84.12
2022-10-11T16:53:56.355Z,84.65
2022-10-11T16:56:25.115Z,84.62
2022-10-11T16:58:53.858Z,84.94
2022-10-11T17:01:21.966Z,85.22
2022-10-11T17:03:51.863Z,85.30
2022-10-11T17:06:20.293Z,84.87
2022-10-11T17:08:48.347Z,85.18
2022-10-11T17:11:17.790Z,85.04
2022-10-11T17:13:46.066Z,85.01
2022-10-11T17:16:14.366Z,85.14
2022-10-11T17:18:42.556Z,85.79
2022-10-11T17:21:15.357Z,85.31
2022-10-11T17:23:43.444Z,85.82
2022-10-11T17:26:15.286Z,86.04
2022-10-11T17:28:43.466Z,86.51
2022-10-11T17:31:12.046Z,86.50
2022-10-11T17:33:40.117Z,86.57
2022-10-11T17:39:02.730Z,86.54
2022-10-11T17:41:32.528Z,86.25
2022-10-11T17:44:01.164Z,86.35
2022-10-11T17:46:35.367Z,86.30
2022-10-11T17:49:05.825Z,86.61
2022-10-11T17:51:34.189Z,86.42
2022-10-11T17:54:04.848Z,86.21
2022-10-11T17:56:37.663Z,86.08
2022-10-11T17:59:06.382Z,86.69
2022-10-11T18:01:34.355Z,87.02
2022-10-11T18:04:06.634Z,86.14
2022-10-11T18:06:40.241Z,86.95
2022-10-11T18:09:09.430Z,86.87
2022-10-11T18:11:37.182Z,86.98
2022-10-11T18:14:06.697Z,86.78
2022-10-11T18:16:37.391Z,86.84
2022-10-11T18:19:06.672Z,87.44
2022-10-11T18:21:36.763Z,87.77
2022-10-11T18:24:07.725Z,87.09
2022-10-11T18:26:38.153Z,87.64
2022-10-11T18:29:06.948Z,87.10
2022-10-11T18:31:37.931Z,87.08
2022-10-11T18:34:10.290Z,85.98
2022-10-11T18:36:38.888Z,86.65
2022-10-11T18:39:10.321Z,86.78
2022-10-11T18:41:45.334Z,86.67
2022-10-11T18:44:15.993Z,86.68
2022-10-11T18:46:50.286Z,87.21
2022-10-11T18:49:20.575Z,87.28
2022-10-11T18:51:48.680Z,87.08
2022-10-11T18:54:26.163Z,85.92
2022-10-11T18:56:59.150Z,86.31
2022-10-11T18:59:29.973Z,86.16
2022-10-11T19:02:01.972Z,86.49
2022-10-11T19:04:35.173Z,86.68
2022-10-11T19:07:12.445Z,86.92
2022-10-11T19:09:40.494Z,86.63
2022-10-11T19:12:09.988Z,86.45
2022-10-11T19:14:44.699Z,86.22
2022-10-11T19:17:34.747Z,86.70
2022-10-11T19:20:22.681Z,86.98
2022-10-11T19:22:57.185Z,86.82
2022-10-11T19:25:29.038Z,87.05
2022-10-11T19:28:22.621Z,87.57
2022-10-11T19:30:53.838Z,87.30
2022-10-11T19:33:36.417Z,87.71
2022-10-11T19:36:12.378Z,87.81
2022-10-11T19:38:45.327Z,87.53
2022-10-11T19:41:20.751Z,87.57
2022-10-11T19:43:55.454Z,87.50
2022-10-11T19:49:20.465Z,87.22
2022-10-11T19:51:55.725Z,87.60
2022-10-11T19:54:23.974Z,86.70
2022-10-11T19:56:56.314Z,87.09
2022-10-11T20:01:54.828Z,87.15
2022-10-11T20:04:50.447Z,87.47
2022-10-11T20:07:12.113Z,87.47
2022-10-11T20:09:45.515Z,87.49
2022-10-11T20:12:13.374Z,87.98
2022-10-11T20:14:50.366Z,87.30
2022-10-11T20:17:19.594Z,87.51
2022-10-11T20:19:47.758Z,87.12
2022-10-11T20:22:18.514Z,87.07
2022-10-11T20:24:47.715Z,87.07
2022-10-11T20:27:15.801Z,86.13
2022-10-11T20:29:47.258Z,86.12
2022-10-11T20:32:15.327Z,86.07
2022-10-11T20:34:45.193Z,86.30
2022-10-11T20:37:13.251Z,86.40
2022-10-11T20:39:41.197Z,85.90
2022-10-11T20:42:09.285Z,86.15
2022-10-11T20:44:37.083Z,87.00
2022-10-11T20:47:05.078Z,86.85
2022-10-11T20:49:32.841Z,86.27
2022-10-11T20:52:01.992Z,86.67
2022-10-11T20:54:30.589Z,86.97
2022-10-11T20:56:59.245Z,86.70
2022-10-11T20:59:27.095Z,86.33
2022-10-11T21:01:54.889Z,86.60
2022-10-11T21:04:22.674Z,86.31
2022-10-11T21:06:50.746Z,86.29
2022-10-11T21:09:20.124Z,86.70
2022-10-11T21:11:47.922Z,86.52
2022-10-11T21:14:15.680Z,87.36
2022-10-11T21:16:43.452Z,87.10
2022-10-11T21:19:14.536Z,87.52
2022-10-11T21:21:42.784Z,87.56
2022-10-11T21:24:10.550Z,87.65
2022-10-11T21:26:39.835Z,87.63
2022-10-11T21:29:08.457Z,87.91
2022-10-11T21:31:36.662Z,88.07
2022-10-11T21:34:05.433Z,88.20
2022-10-11T21:36:33.191Z,87.89
2022-10-11T21:39:01.229Z,87.81
2022-10-11T21:41:30.320Z,87.52
2022-10-11T21:43:59.662Z,87.81
2022-10-11T21:46:54.020Z,87.49
2022-10-11T21:49:17.819Z,87.92
2022-10-11T21:51:46.134Z,86.95
2022-10-11T21:54:13.900Z,86.94
2022-10-11T21:56:42.202Z,87.09
2022-10-11T21:59:12.642Z,87.28
2022-10-11T22:01:41.357Z,86.85
2022-10-11T22:04:09.245Z,86.54
2022-10-11T22:06:37.886Z,86.76
2022-10-11T22:09:06.779Z,86.57
2022-10-11T22:11:34.599Z,86.65
2022-10-11T22:14:02.369Z,86.78
2022-10-11T22:16:31.810Z,86.96
2022-10-11T22:19:00.045Z,86.57
2022-10-11T22:21:27.819Z,86.77
2022-10-11T22:23:55.710Z,86.63
2022-10-11T22:26:25.695Z,86.68
2022-10-11T22:28:54.254Z,86.66
2022-10-11T22:31:23.449Z,86.50
2022-10-11T22:33:55.911Z,86.17
2022-10-11T22:36:24.928Z,86.42
2022-10-11T22:38:53.609Z,86.33
2022-10-11T22:41:21.446Z,86.09
2022-10-11T22:43:49.329Z,86.44
2022-10-11T22:46:17.491Z,86.56
2022-10-11T22:48:45.242Z,85.60
2022-10-11T22:51:14.604Z,85.67
2022-10-11T22:53:42.422Z,85.96
2022-10-11T22:56:11.182Z,85.99
2022-10-11T22:58:39.026Z,86.25
2022-10-11T23:01:10.805Z,86.64
2022-10-11T23:03:38.919Z,86.98
2022-10-11T23:06:06.949Z,86.44
2022-10-11T23:08:36.071Z,86.78
2022-10-11T23:11:05.262Z,86.48
2022-10-11T23:13:33.142Z,86.97
2022-10-11T23:16:01.070Z,86.35
2022-10-11T23:18:28.829Z,84.38
2022-10-11T23:20:56.605Z,85.46
2022-10-11T23:23:24.372Z,85.88
2022-10-11T23:26:02.997Z,85.72
2022-10-11T23:28:30.994Z,85.26
2022-10-11T23:30:58.847Z,85.34
2022-10-11T23:33:26.752Z,84.81
2022-10-11T23:35:54.533Z,85.25
2022-10-11T23:38:22.280Z,85.43
2022-10-11T23:40:50.071Z,85.33
2022-10-11T23:43:19.221Z,86.08
2022-10-11T23:45:46.958Z,86.08
2022-10-11T23:48:14.773Z,86.38
2022-10-11T23:50:43.344Z,85.87
2022-10-11T23:53:13.540Z,86.08
2022-10-11T23:55:41.459Z,86.25
2022-10-11T23:58:09.280Z,86.38
